Time;durP1;ratioP1;P1;durP2;ratioP2;P2;SDS_P1;SDS_P2;PMS_P1;PMS_P2;Temp;Humidity;BMP_temperature;BMP_pressure;BME280_temperature;BME280_humidity;BME280_pressure;Samples;Min_cycle;Max_cycle;Signal;HPM_P1;HPM_P2
2022/12/17 13:10:28;;;;;;;14.90;5.00;;;;;;;-6.84;78.96;102053.69;10601885;28;20039;-78
2022/12/17 13:15:40;;;;;;;11.43;4.07;;;;;;;-6.82;79.42;102049.06;10592904;28;20047;-76
2022/12/17 13:20:42;;;;;;;11.75;5.05;;;;;;;-6.71;79.09;102048.16;10597862;28;20054;-78
2022/12/17 13:25:45;;;;;;;9.77;4.80;;;;;;;-6.62;79.04;102044.66;10616317;28;20043;-79
2022/12/17 13:30:47;;;;;;;7.88;3.55;;;;;;;-6.54;78.29;102042.16;10596943;28;20052;-78
2022/12/17 13:36:07;;;;;;;8.25;4.47;;;;;;;-6.53;78.74;102040.34;10579740;28;20048;-79
2022/12/17 13:41:12;;;;;;;11.10;4.80;;;;;;;-6.62;78.33;102036.66;10574462;27;20031;-77
2022/12/17 13:46:25;;;;;;;8.90;4.22;;;;;;;-6.49;78.47;102028.41;10583874;27;20039;-79
2022/12/17 13:51:30;;;;;;;11.10;4.47;;;;;;;-6.43;78.19;102041.19;10607706;27;20031;-79
2022/12/17 13:56:36;;;;;;;6.30;3.30;;;;;;;-6.48;78.08;102038.09;10607612;27;20047;-79
2022/12/17 14:01:50;;;;;;;7.78;3.97;;;;;;;-6.41;78.87;102045.44;10594539;27;20509;-78
2022/12/17 14:06:55;;;;;;;9.45;4.20;;;;;;;-6.27;78.49;102051.38;10589364;27;20395;-78
2022/12/17 14:12:20;;;;;;;9.90;4.22;;;;;;;-6.38;77.87;102052.34;10557971;27;20031;-76
2022/12/17 14:17:28;;;;;;;7.90;4.13;;;;;;;-6.48;78.50;102059.47;10579354;28;20510;-76
2022/12/17 14:22:58;;;;;;;10.45;4.45;;;;;;;-6.39;78.21;102058.66;10612854;28;20406;-77
2022/12/17 14:28:05;;;;;;;7.95;4.20;;;;;;;-6.41;78.54;102058.81;10589227;28;20059;-76
2022/12/17 14:33:43;;;;;;;7.53;3.90;;;;;;;-6.56;78.54;102060.16;10595977;28;20082;-76
2022/12/17 14:38:54;;;;;;;7.80;4.67;;;;;;;-6.59;78.65;102054.25;10517197;28;20044;-77
2022/12/17 14:43:58;;;;;;;8.10;4.18;;;;;;;-6.65;79.70;102049.41;10565142;28;20059;-76
2022/12/17 14:49:02;;;;;;;6.35;4.05;;;;;;;-6.67;79.78;102049.56;10561827;28;20413;-76
2022/12/17 14:54:21;;;;;;;9.57;4.47;;;;;;;-6.71;79.43;102053.47;10542622;28;20048;-77
2022/12/17 14:59:29;;;;;;;8.52;4.38;;;;;;;-6.66;80.03;102064.59;10563467;28;20091;-76
2022/12/17 15:04:31;;;;;;;11.10;5.03;;;;;;;-6.63;79.81;102067.00;10564099;28;20036;-75
2022/12/17 15:09:37;;;;;;;10.73;4.47;;;;;;;-6.56;79.65;102057.47;10531656;28;20036;-77
2022/12/17 15:14:39;;;;;;;10.57;5.28;;;;;;;-6.56;80.61;102051.28;10548139;28;20063;-76
2022/12/17 15:19:42;;;;;;;10.00;5.10;;;;;;;-6.56;80.43;102062.81;10563434;28;20044;-76
2022/12/17 15:24:44;;;;;;;12.40;5.70;;;;;;;-6.47;80.22;102061.16;10530850;28;20044;-75
2022/12/17 15:29:46;;;;;;;12.23;4.93;;;;;;;-6.38;80.13;102063.03;10542961;28;20419;-77
2022/12/17 15:34:49;;;;;;;10.52;5.13;;;;;;;-6.24;78.91;102059.13;10565614;28;20070;-75
2022/12/17 15:39:51;;;;;;;15.48;6.53;;;;;;;-6.34;79.38;102066.25;10531241;28;20040;-74
2022/12/17 15:44:53;;;;;;;19.75;8.68;;;;;;;-6.30;80.17;102067.66;10562550;28;20051;-77
2022/12/17 15:49:56;;;;;;;14.77;7.05;;;;;;;-6.31;80.45;102061.47;10565787;28;20051;-76
2022/12/17 15:54:58;;;;;;;18.55;8.85;;;;;;;-6.37;80.73;102059.38;10545334;28;20083;-76
2022/12/17 16:00:00;;;;;;;18.73;8.07;;;;;;;-6.39;81.12;102050.66;10563260;28;20040;-77
2022/12/17 16:05:03;;;;;;;18.40;7.25;;;;;;;-6.43;81.08;102057.22;10552416;28;20037;-76
2022/12/17 16:10:05;;;;;;;17.83;7.68;;;;;;;-6.49;81.23;102050.59;10571294;28;20047;-79
2022/12/17 16:15:08;;;;;;;19.92;8.00;;;;;;;-6.46;81.37;102042.31;10563241;28;20052;-77
2022/12/17 16:20:11;;;;;;;15.40;7.88;;;;;;;-6.42;81.81;102045.56;10575519;28;20059;-77
2022/12/17 16:25:13;;;;;;;18.85;7.63;;;;;;;-6.23;81.37;102052.81;10573453;28;20047;-79
2022/12/17 16:30:15;;;;;;;20.40;8.90;;;;;;;-6.18;80.76;102056.75;10575301;28;20541;-79
2022/12/17 16:35:17;;;;;;;19.83;8.85;;;;;;;-6.27;81.35;102054.03;10590194;27;20047;-79
2022/12/17 16:40:20;;;;;;;17.63;9.15;;;;;;;-6.22;80.97;102052.66;10624694;27;20043;-78
2022/12/17 16:45:22;;;;;;;19.15;8.38;;;;;;;-6.25;80.84;102046.72;10617260;27;20055;-79
2022/12/17 16:50:28;;;;;;;15.27;6.82;;;;;;;-6.34;80.95;102045.72;10622309;27;20047;-78
2022/12/17 16:55:30;;;;;;;23.13;7.95;;;;;;;-6.42;81.00;102048.22;10614995;27;20052;-77
2022/12/17 17:00:33;;;;;;;16.50;7.30;;;;;;;-6.52;80.58;102063.38;10617345;27;20058;-77
2022/12/17 17:05:37;;;;;;;18.77;9.50;;;;;;;-6.56;81.12;102062.81;10606142;27;20043;-79
2022/12/17 17:10:40;;;;;;;25.20;9.85;;;;;;;-6.58;80.93;102067.44;10607477;27;20035;-79
2022/12/17 17:15:42;;;;;;;23.20;9.77;;;;;;;-6.51;80.92;102060.59;10612663;27;20046;-79
2022/12/17 17:20:44;;;;;;;27.38;12.63;;;;;;;-6.49;80.73;102060.44;10612664;27;20066;-80
2022/12/17 17:25:48;;;;;;;24.30;10.43;;;;;;;-6.49;80.65;102063.13;10607688;28;20036;-78
2022/12/17 17:30:57;;;;;;;26.10;10.40;;;;;;;-6.42;80.90;102062.44;10617559;27;20050;-80
2022/12/17 17:36:03;;;;;;;21.42;11.55;;;;;;;-6.47;80.89;102067.34;10610751;28;20063;-78
2022/12/17 17:41:07;;;;;;;22.27;10.70;;;;;;;-6.36;80.96;102062.88;10612508;28;20036;-79
2022/12/17 17:46:18;;;;;;;25.00;11.93;;;;;;;-6.52;80.85;102076.75;10612118;28;20035;-79
2022/12/17 17:51:26;;;;;;;22.00;10.70;;;;;;;-6.54;81.49;102084.03;10607623;28;20035;-78
2022/12/17 17:56:33;;;;;;;24.75;12.57;;;;;;;-6.62;80.85;102078.50;10613307;27;20109;-78
2022/12/17 18:01:41;;;;;;;22.60;11.05;;;;;;;-6.68;81.59;102085.25;10612390;27;20044;-77
2022/12/17 18:06:44;;;;;;;31.50;13.77;;;;;;;-6.54;81.18;102087.56;10607949;27;20046;-79
2022/12/17 18:11:46;;;;;;;24.15;12.45;;;;;;;-6.53;81.05;102088.41;10610041;28;20039;-77
2022/12/17 18:16:48;;;;;;;24.30;11.63;;;;;;;-6.53;81.25;102083.91;10604446;27;20059;-77
2022/12/17 18:21:52;;;;;;;24.25;12.88;;;;;;;-6.54;81.39;102076.03;10607809;27;20043;-77
2022/12/17 18:26:54;;;;;;;23.92;12.10;;;;;;;-6.46;80.78;102074.38;10605249;27;20620;-80
2022/12/17 18:31:57;;;;;;;21.65;11.90;;;;;;;-6.38;81.36;102074.53;10601704;28;20031;-79
2022/12/17 18:36:59;;;;;;;27.35;13.00;;;;;;;-6.29;80.88;102090.72;10607907;28;20055;-80
2022/12/17 18:47:24;;;;;;;28.25;14.02;;;;;;;-6.59;81.26;102100.47;10623418;27;20043;-78
2022/12/17 18:52:26;;;;;;;33.50;15.95;;;;;;;-6.51;81.62;102097.97;10603581;27;20035;-79
2022/12/17 18:57:33;;;;;;;36.30;16.95;;;;;;;-6.55;81.34;102090.38;10610192;27;20046;-81
2022/12/17 19:02:37;;;;;;;35.63;17.67;;;;;;;-6.53;81.04;102088.41;10617796;27;20058;-79
2022/12/17 19:07:39;;;;;;;33.95;17.05;;;;;;;-6.58;80.97;102091.47;10591688;28;20047;-80
2022/12/17 19:12:41;;;;;;;30.55;15.00;;;;;;;-6.62;81.43;102094.53;10641355;27;20035;-79
2022/12/17 19:17:43;;;;;;;30.05;14.32;;;;;;;-6.51;81.29;102092.63;10629908;28;20046;-78
2022/12/17 19:22:46;;;;;;;28.70;14.15;;;;;;;-6.52;81.38;102111.44;10586048;28;20071;-82
2022/12/17 19:27:49;;;;;;;33.50;16.45;;;;;;;-6.42;81.70;102105.19;10619164;28;20040;-81
2022/12/17 19:32:52;;;;;;;37.72;17.75;;;;;;;-6.41;81.35;102100.69;10613570;28;20054;-82
2022/12/17 19:37:54;;;;;;;30.40;14.20;;;;;;;-6.55;81.69;102107.22;10630694;27;20052;-82
2022/12/17 19:42:56;;;;;;;30.48;14.38;;;;;;;-6.46;81.31;102111.75;10615967;27;20417;-81
2022/12/17 19:47:59;;;;;;;25.75;12.02;;;;;;;-6.57;81.98;102119.88;10592094;27;20539;-82
2022/12/17 19:53:02;;;;;;;25.23;12.75;;;;;;;-6.50;82.16;102109.50;10635344;27;20044;-78
2022/12/17 19:58:06;;;;;;;20.55;10.43;;;;;;;-6.49;81.85;102114.69;10620798;27;20540;-78
2022/12/17 20:03:09;;;;;;;13.68;6.95;;;;;;;-6.62;81.17;102116.72;10620669;27;20058;-79
2022/12/17 20:08:12;;;;;;;11.77;6.53;;;;;;;-6.54;80.46;102102.72;10602083;27;20134;-79
2022/12/17 20:13:14;;;;;;;15.50;8.27;;;;;;;-6.58;81.61;102110.16;10575954;28;20048;-79
2022/12/17 20:18:16;;;;;;;11.05;6.03;;;;;;;-6.64;80.86;102093.81;10607157;27;20042;-82
2022/12/17 20:23:19;;;;;;;11.05;6.15;;;;;;;-6.66;80.56;102088.63;10599050;28;20035;-80
2022/12/17 20:28:21;;;;;;;11.02;6.28;;;;;;;-6.48;80.92;102087.00;10593664;27;20063;-80
2022/12/17 20:33:24;;;;;;;13.63;6.30;;;;;;;-6.49;80.28;102074.63;10609808;27;20043;-80
2022/12/17 20:38:26;;;;;;;20.13;8.55;;;;;;;-6.54;80.17;102086.72;10593989;28;20059;-81
2022/12/17 20:43:28;;;;;;;11.55;5.75;;;;;;;-6.66;79.67;102096.63;10617330;28;20524;-80
2022/12/17 20:48:31;;;;;;;11.70;6.05;;;;;;;-6.67;79.43;102086.94;10623457;27;20046;-85
2022/12/17 20:53:34;;;;;;;12.05;6.30;;;;;;;-6.53;79.52;102083.91;10614276;27;20075;-80
2022/12/17 20:58:40;;;;;;;11.13;5.65;;;;;;;-6.36;79.05;102079.75;10607578;27;20047;-82
2022/12/17 21:03:43;;;;;;;9.75;5.75;;;;;;;-6.24;78.75;102077.81;10608180;27;20058;-84
2022/12/17 21:08:47;;;;;;;12.98;6.70;;;;;;;-6.15;78.13;102072.50;10629192;27;20039;-82
2022/12/17 21:13:50;;;;;;;10.77;5.93;;;;;;;-6.14;78.06;102076.00;10632170;27;20046;-81
2022/12/17 21:18:54;;;;;;;8.95;5.38;;;;;;;-6.18;78.03;102074.59;10610318;27;20408;-85
2022/12/17 21:23:57;;;;;;;10.15;5.65;;;;;;;-6.17;78.28;102089.66;10651074;27;20066;-83
2022/12/17 21:29:00;;;;;;;12.73;6.72;;;;;;;-6.33;78.98;102079.47;10603857;27;20059;-83
2022/12/17 21:34:04;;;;;;;13.20;6.63;;;;;;;-6.28;78.64;102082.56;10603709;27;20059;-82
2022/12/17 21:39:08;;;;;;;9.32;5.57;;;;;;;-6.41;78.45;102076.66;10609839;27;20038;-84
2022/12/17 21:44:11;;;;;;;10.10;5.70;;;;;;;-6.43;78.52;102078.59;10601321;27;20043;-81
2022/12/17 21:49:14;;;;;;;10.50;6.18;;;;;;;-6.43;78.21;102065.22;10634099;27;20047;-82
2022/12/17 21:54:16;;;;;;;11.52;5.97;;;;;;;-6.45;78.73;102064.53;10626920;27;20038;-83
2022/12/17 21:59:18;;;;;;;8.82;5.03;;;;;;;-6.42;78.87;102078.47;10607686;27;20035;-84
2022/12/17 22:04:20;;;;;;;10.98;5.75;;;;;;;-6.27;78.68;102075.41;10618800;27;20039;-83
2022/12/17 22:09:22;;;;;;;9.15;5.85;;;;;;;-6.35;78.05;102086.78;10638306;27;20046;-84
2022/12/17 22:14:24;;;;;;;9.60;5.15;;;;;;;-6.35;78.54;102080.59;10629131;27;20046;-82
2022/12/17 22:19:30;;;;;;;10.77;5.30;;;;;;;-6.25;77.95;102086.78;10616398;27;20048;-82
2022/12/17 22:24:32;;;;;;;8.48;5.07;;;;;;;-6.26;78.31;102071.75;10607531;27;20043;-83
2022/12/17 22:34:55;;;;;;;10.15;6.32;;;;;;;-6.41;77.96;102066.81;10638553;27;20505;-85
2022/12/17 22:39:58;;;;;;;10.50;5.35;;;;;;;-6.60;78.87;102060.53;10629403;27;20047;-88
2022/12/17 22:45:04;;;;;;;10.55;5.53;;;;;;;-6.70;78.28;102077.38;10621962;27;20035;-83
2022/12/17 22:50:06;;;;;;;10.25;6.00;;;;;;;-6.79;78.90;102075.47;10622498;27;20050;-85
2022/12/17 22:55:09;;;;;;;9.38;5.65;;;;;;;-6.58;79.03;102072.78;10639324;27;20528;-84
2022/12/17 23:00:22;;;;;;;9.82;6.03;;;;;;;-6.54;79.23;102071.53;10611962;28;20039;-89
2022/12/17 23:05:26;;;;;;;10.05;5.45;;;;;;;-6.56;79.11;102072.66;10594563;27;20038;-83
2022/12/17 23:10:28;;;;;;;11.45;5.63;;;;;;;-6.59;78.74;102060.44;10612229;27;20043;-78
2022/12/17 23:15:35;;;;;;;11.07;6.07;;;;;;;-6.44;78.81;102072.41;10606532;27;20042;-77
2022/12/17 23:20:38;;;;;;;9.30;5.78;;;;;;;-6.38;78.39;102063.03;10605300;28;20039;-79
2022/12/17 23:25:40;;;;;;;11.02;6.32;;;;;;;-6.41;78.91;102065.97;10591356;28;20039;-79
2022/12/17 23:30:43;;;;;;;10.20;5.65;;;;;;;-6.44;79.03;102064.38;10576265;28;20401;-78
2022/12/17 23:35:45;;;;;;;10.77;6.32;;;;;;;-6.52;79.19;102074.06;10621906;28;20044;-79
2022/12/17 23:40:47;;;;;;;12.38;6.85;;;;;;;-6.48;79.12;102054.97;10612871;28;20031;-79
2022/12/17 23:45:50;;;;;;;10.55;6.25;;;;;;;-6.37;79.29;102059.38;10646629;28;20047;-80
2022/12/17 23:50:52;;;;;;;12.82;6.80;;;;;;;-6.34;79.35;102053.75;10612548;28;20518;-79
2022/12/17 23:55:54;;;;;;;12.88;6.82;;;;;;;-6.56;79.43;102060.16;10606895;28;20050;-79
